createdAt,value
2018-03-24T00:00:52.242Z,22.08
2018-03-24T00:03:20.459Z,25.83
2018-03-24T00:05:49.359Z,22.60
2018-03-24T00:08:17.552Z,25.45
2018-03-24T00:10:45.677Z,22.60
2018-03-24T00:13:13.836Z,25.02
2018-03-24T00:15:41.965Z,24.48
2018-03-24T00:18:10.123Z,26.27
2018-03-24T00:20:39.014Z,25.48
2018-03-24T00:23:07.186Z,24.30
2018-03-24T00:25:35.346Z,24.33
2018-03-24T00:28:03.528Z,22.25
2018-03-24T00:30:31.662Z,21.45
2018-03-24T00:32:59.801Z,23.73
2018-03-24T00:35:27.959Z,23.92
2018-03-24T00:37:56.098Z,25.12
2018-03-24T00:40:24.258Z,24.90
2018-03-24T00:42:52.389Z,22.87
2018-03-24T00:45:20.559Z,23.40
2018-03-24T00:47:48.693Z,24.65
2018-03-24T00:50:16.872Z,24.25
2018-03-24T00:52:45.012Z,22.50
2018-03-24T00:55:13.177Z,23.25
2018-03-24T00:57:41.353Z,23.25
2018-03-24T01:00:09.529Z,24.37
2018-03-24T01:02:37.669Z,22.13
2018-03-24T01:05:05.847Z,23.90
2018-03-24T01:07:34.016Z,24.65
2018-03-24T01:10:02.175Z,24.77
2018-03-24T01:12:31.076Z,21.58
2018-03-24T01:14:59.997Z,23.83
2018-03-24T01:17:28.140Z,25.98
2018-03-24T01:19:57.341Z,22.52
2018-03-24T01:22:25.473Z,22.85
2018-03-24T01:24:53.635Z,26.27
2018-03-24T01:27:21.767Z,26.67
2018-03-24T01:29:49.931Z,23.75
2018-03-24T01:32:18.062Z,26.95
2018-03-24T01:34:46.185Z,27.08
2018-03-24T01:37:14.392Z,24.08
2018-03-24T01:39:42.506Z,25.02
2018-03-24T01:42:10.665Z,25.83
2018-03-24T01:44:38.798Z,29.10
2018-03-24T01:47:06.948Z,23.85
2018-03-24T01:49:35.085Z,23.90
2018-03-24T01:52:03.268Z,21.85
2018-03-24T01:54:31.399Z,21.58
2018-03-24T01:56:59.564Z,27.23
2018-03-24T01:59:27.690Z,23.67
2018-03-24T02:01:55.849Z,23.75
2018-03-24T02:04:23.981Z,27.13
2018-03-24T02:06:52.143Z,27.00
2018-03-24T02:09:20.276Z,25.40
2018-03-24T02:11:48.435Z,27.77
2018-03-24T02:14:16.569Z,24.98
2018-03-24T02:16:44.728Z,25.55
2018-03-24T02:19:12.861Z,23.38
2018-03-24T02:21:45.541Z,27.90
2018-03-24T02:24:13.679Z,26.23
2018-03-24T02:26:41.841Z,27.25
2018-03-24T02:29:09.998Z,26.75
2018-03-24T02:31:38.919Z,28.85
2018-03-24T02:34:07.056Z,27.50
2018-03-24T02:36:35.218Z,23.60
2018-03-24T02:39:03.354Z,26.62
2018-03-24T02:41:31.515Z,26.92
2018-03-24T02:43:59.672Z,27.08
2018-03-24T02:46:27.810Z,25.80
2018-03-24T02:48:55.975Z,31.65
2018-03-24T02:51:24.113Z,29.27
2018-03-24T02:53:52.284Z,23.40
2018-03-24T02:56:20.421Z,28.48
2018-03-24T02:58:48.585Z,29.67
2018-03-24T03:01:17.480Z,27.40
2018-03-24T03:03:45.639Z,28.90
2018-03-24T03:06:13.770Z,25.42
2018-03-24T03:08:41.938Z,27.55
2018-03-24T03:11:10.069Z,26.30
2018-03-24T03:13:38.224Z,27.08
2018-03-24T03:16:06.777Z,27.77
2018-03-24T03:18:34.942Z,28.73
2018-03-24T03:21:03.070Z,28.05
2018-03-24T03:23:31.994Z,28.42
2018-03-24T03:26:00.136Z,26.10
2018-03-24T03:28:29.056Z,26.27
2018-03-24T03:33:53.869Z,29.90
2018-03-24T03:36:21.993Z,30.20
2018-03-24T03:38:50.155Z,29.40
2018-03-24T03:41:18.297Z,25.27
2018-03-24T03:43:46.454Z,28.75
2018-03-24T03:46:14.590Z,29.02
2018-03-24T03:48:42.765Z,26.52
2018-03-24T03:51:10.893Z,32.42
2018-03-24T03:53:39.053Z,29.75
2018-03-24T03:56:07.187Z,28.73
2018-03-24T03:58:35.374Z,28.05
2018-03-24T04:01:03.500Z,29.80
2018-03-24T04:03:31.689Z,30.17
2018-03-24T04:05:59.809Z,30.73
2018-03-24T04:08:27.942Z,32.35
2018-03-24T04:10:56.091Z,29.45
2018-03-24T04:13:24.228Z,31.58
2018-03-24T04:15:53.149Z,29.98
2018-03-24T04:18:21.294Z,30.30
2018-03-24T04:20:50.218Z,28.15
2018-03-24T04:23:18.355Z,30.02
2018-03-24T04:25:47.277Z,28.38
2018-03-24T04:28:15.414Z,25.85
2018-03-24T04:30:44.342Z,30.80
2018-03-24T04:33:12.478Z,26.73
2018-03-24T04:35:41.406Z,28.58
2018-03-24T04:38:09.537Z,31.05
2018-03-24T04:40:38.461Z,32.03
2018-03-24T04:43:06.587Z,27.30
2018-03-24T04:45:34.754Z,27.27
2018-03-24T04:48:02.887Z,28.90
2018-03-24T04:50:31.047Z,30.95
2018-03-24T04:52:59.187Z,31.67
2018-03-24T04:55:27.352Z,26.95
2018-03-24T04:57:55.492Z,30.83
2018-03-24T05:00:23.642Z,30.23
2018-03-24T05:02:51.773Z,29.73
2018-03-24T05:05:19.949Z,30.37
2018-03-24T05:07:48.077Z,28.87
2018-03-24T05:10:16.213Z,25.00
2018-03-24T05:12:44.361Z,26.12
2018-03-24T05:15:12.493Z,28.75
2018-03-24T05:17:40.645Z,30.10
2018-03-24T05:20:08.783Z,26.42
2018-03-24T05:22:36.948Z,29.73
2018-03-24T05:25:05.082Z,27.62
2018-03-24T05:27:33.233Z,25.10
2018-03-24T05:30:01.378Z,24.50
2018-03-24T05:32:29.546Z,26.08
2018-03-24T05:34:57.677Z,25.35
2018-03-24T05:37:25.842Z,26.77
2018-03-24T05:39:53.977Z,28.65
2018-03-24T05:42:22.133Z,25.83
2018-03-24T05:44:50.263Z,28.40
2018-03-24T05:47:18.434Z,28.85
2018-03-24T05:49:46.574Z,28.70
2018-03-24T05:52:14.734Z,33.08
2018-03-24T05:54:42.865Z,26.58
2018-03-24T05:57:11.025Z,28.50
2018-03-24T05:59:39.161Z,28.12
2018-03-24T06:02:07.330Z,26.15
2018-03-24T06:04:35.466Z,25.67
2018-03-24T06:07:03.630Z,26.33
2018-03-24T06:09:31.765Z,27.25
2018-03-24T06:11:59.922Z,28.45
2018-03-24T06:14:28.052Z,26.25
2018-03-24T06:16:56.211Z,26.35
2018-03-24T06:19:24.367Z,22.83
2018-03-24T06:21:52.520Z,22.48
2018-03-24T06:24:20.661Z,27.23
2018-03-24T06:26:48.794Z,24.10
2018-03-24T06:29:16.954Z,25.30
2018-03-24T06:31:45.076Z,27.00
2018-03-24T06:34:13.257Z,27.92
2018-03-24T06:39:42.603Z,32.15
2018-03-24T06:42:10.743Z,26.95
2018-03-24T06:44:38.893Z,22.15
2018-03-24T06:47:07.029Z,22.95
2018-03-24T06:49:35.208Z,27.27
2018-03-24T06:52:03.346Z,23.62
2018-03-24T06:54:31.505Z,26.33
2018-03-24T06:56:59.655Z,26.15
2018-03-24T06:59:28.583Z,25.25
2018-03-24T07:01:56.708Z,24.58
2018-03-24T07:04:25.625Z,25.25
2018-03-24T07:06:53.755Z,23.73
2018-03-24T07:09:21.914Z,26.35
2018-03-24T07:11:50.040Z,24.63
2018-03-24T07:14:18.201Z,25.37
2018-03-24T07:16:46.342Z,23.38
2018-03-24T07:19:14.506Z,22.35
2018-03-24T07:21:42.642Z,24.25
2018-03-24T07:24:10.803Z,23.33
2018-03-24T07:26:38.930Z,23.38
2018-03-24T07:29:07.086Z,24.67
2018-03-24T07:31:35.219Z,23.92
2018-03-24T07:34:03.375Z,20.95
2018-03-24T07:36:31.510Z,24.87
2018-03-24T07:38:59.665Z,24.10
2018-03-24T07:41:27.799Z,22.08
2018-03-24T07:43:55.966Z,24.75
2018-03-24T07:46:24.104Z,25.27
2018-03-24T07:48:52.261Z,26.10
2018-03-24T07:51:20.421Z,23.98
2018-03-24T07:53:48.610Z,23.15
2018-03-24T07:56:16.739Z,23.85
2018-03-24T07:58:44.874Z,24.85
2018-03-24T08:01:13.029Z,23.90
2018-03-24T08:03:41.166Z,21.83
2018-03-24T08:06:09.317Z,24.42
2018-03-24T08:08:37.453Z,23.02
2018-03-24T08:11:05.603Z,24.52
2018-03-24T08:13:33.747Z,24.23
2018-03-24T08:16:01.906Z,23.02
2018-03-24T08:18:30.033Z,24.48
2018-03-24T08:20:58.202Z,22.80
2018-03-24T08:23:26.338Z,24.20
2018-03-24T08:25:54.500Z,24.10
2018-03-24T08:28:22.660Z,22.92
2018-03-24T08:30:50.820Z,22.48
2018-03-24T08:33:18.958Z,23.58
2018-03-24T08:35:47.124Z,22.98
2018-03-24T08:38:16.030Z,23.45
2018-03-24T08:40:44.188Z,24.37
2018-03-24T08:43:12.338Z,25.37
2018-03-24T08:45:40.508Z,21.37
2018-03-24T08:48:08.655Z,21.85
2018-03-24T08:50:36.833Z,24.08
2018-03-24T08:53:04.986Z,26.08
2018-03-24T08:55:33.152Z,26.42
2018-03-24T08:58:01.290Z,25.42
2018-03-24T09:00:30.213Z,28.02
2018-03-24T09:02:58.347Z,25.30
2018-03-24T09:05:26.511Z,23.55
2018-03-24T09:07:54.657Z,22.10
2018-03-24T09:10:22.827Z,22.48
2018-03-24T09:12:50.967Z,25.60
2018-03-24T09:15:19.132Z,24.05
2018-03-24T09:17:47.265Z,22.15
2018-03-24T09:20:15.429Z,24.23
2018-03-24T09:22:43.580Z,23.08
2018-03-24T09:25:11.738Z,26.35
2018-03-24T09:27:39.868Z,27.62
2018-03-24T09:30:08.005Z,21.73
2018-03-24T09:32:36.161Z,18.50
2018-03-24T09:35:04.342Z,18.50
2018-03-24T09:37:33.247Z,24.70
2018-03-24T09:40:01.413Z,18.48
2018-03-24T09:42:29.588Z,17.98
2018-03-24T09:44:57.726Z,16.70
2018-03-24T09:47:26.692Z,14.30
2018-03-24T09:49:54.811Z,18.23
2018-03-24T09:52:22.970Z,17.55
2018-03-24T09:54:51.870Z,16.73
2018-03-24T09:57:20.026Z,17.90
2018-03-24T09:59:48.152Z,13.77
2018-03-24T10:02:16.314Z,15.65
2018-03-24T10:04:44.446Z,16.90
2018-03-24T10:07:13.369Z,13.75
2018-03-24T10:09:41.502Z,15.15
2018-03-24T10:12:09.665Z,15.70
2018-03-24T10:14:37.814Z,15.57
2018-03-24T10:17:05.969Z,13.65
2018-03-24T10:19:34.101Z,14.52
2018-03-24T10:22:12.787Z,14.75
2018-03-24T10:24:40.921Z,14.10
2018-03-24T10:27:09.079Z,13.18
2018-03-24T10:29:37.988Z,13.18
2018-03-24T10:32:06.151Z,13.40
2018-03-24T10:34:35.059Z,15.38
2018-03-24T10:37:03.218Z,13.65
2018-03-24T10:39:31.348Z,13.80
2018-03-24T10:41:59.505Z,14.18
2018-03-24T10:44:27.713Z,13.35
2018-03-24T10:46:56.645Z,14.87
2018-03-24T10:49:24.786Z,14.43
2018-03-24T10:51:53.709Z,15.73
2018-03-24T10:54:21.853Z,13.43
2018-03-24T10:56:50.751Z,14.50
2018-03-24T10:59:18.911Z,14.98
2018-03-24T11:01:47.043Z,14.38
2018-03-24T11:04:15.209Z,41.35
2018-03-24T11:06:43.355Z,14.90
2018-03-24T11:09:11.522Z,14.38
2018-03-24T11:11:40.451Z,13.85
2018-03-24T11:14:08.610Z,14.75
2018-03-24T11:16:36.747Z,13.75
2018-03-24T11:19:05.680Z,14.90
2018-03-24T11:21:33.820Z,15.38
2018-03-24T11:24:01.979Z,15.80
2018-03-24T11:26:30.164Z,12.48
2018-03-24T11:28:58.293Z,13.80
2018-03-24T11:31:26.433Z,13.73
2018-03-24T11:33:54.676Z,13.75
2018-03-24T11:36:22.818Z,12.95
2018-03-24T11:38:50.988Z,13.15
2018-03-24T11:41:19.126Z,15.55
2018-03-24T11:43:47.285Z,12.45
2018-03-24T11:46:16.191Z,13.60
2018-03-24T11:48:44.351Z,13.88
2018-03-24T11:51:13.257Z,16.30
2018-03-24T11:53:46.390Z,15.32
2018-03-24T11:56:14.578Z,15.65
2018-03-24T11:58:42.717Z,15.18
2018-03-24T12:01:10.850Z,15.20
2018-03-24T12:03:39.775Z,14.87
2018-03-24T12:06:07.916Z,12.88
2018-03-24T12:08:36.842Z,12.85
2018-03-24T12:11:04.985Z,14.95
2018-03-24T12:13:33.906Z,13.13
2018-03-24T12:16:02.050Z,14.27
2018-03-24T12:18:30.984Z,13.57
2018-03-24T12:20:59.118Z,13.95
2018-03-24T12:23:28.016Z,13.15
2018-03-24T12:25:56.182Z,13.23
2018-03-24T12:28:24.314Z,14.45
2018-03-24T12:30:52.486Z,12.15
2018-03-24T12:33:20.618Z,12.90
2018-03-24T12:35:48.782Z,13.10
2018-03-24T12:38:16.923Z,14.77
2018-03-24T12:40:45.120Z,12.80
2018-03-24T12:43:13.261Z,12.30
2018-03-24T12:45:41.469Z,11.88
2018-03-24T12:48:09.603Z,12.68
2018-03-24T12:50:37.766Z,13.13
2018-03-24T12:53:05.900Z,13.62
2018-03-24T12:55:34.060Z,13.75
2018-03-24T12:58:02.197Z,11.30
2018-03-24T13:00:30.370Z,12.55
2018-03-24T13:02:58.529Z,12.88
2018-03-24T13:05:26.685Z,13.10
2018-03-24T13:07:54.819Z,12.85
2018-03-24T13:10:22.981Z,11.65
2018-03-24T13:12:51.113Z,12.15
2018-03-24T13:15:19.265Z,13.35
2018-03-24T13:17:47.407Z,12.10
2018-03-24T13:20:15.568Z,13.40
2018-03-24T13:22:43.712Z,11.95
2018-03-24T13:25:11.891Z,12.65
2018-03-24T13:27:40.026Z,11.23
2018-03-24T13:30:08.174Z,12.68
2018-03-24T13:32:37.105Z,12.30
2018-03-24T13:35:05.242Z,12.52
2018-03-24T13:37:34.181Z,12.63
2018-03-24T13:40:02.325Z,12.25
2018-03-24T13:42:30.492Z,13.38
2018-03-24T13:44:58.638Z,13.80
2018-03-24T13:47:26.805Z,14.27
2018-03-24T13:49:54.937Z,12.48
2018-03-24T13:52:23.098Z,12.57
2018-03-24T13:54:51.233Z,13.25
2018-03-24T13:57:19.393Z,12.00
2018-03-24T13:59:47.599Z,13.25
2018-03-24T14:02:15.757Z,12.32
2018-03-24T14:04:43.897Z,12.43
2018-03-24T14:07:12.055Z,14.40
2018-03-24T14:09:40.206Z,13.05
2018-03-24T14:12:08.383Z,11.63
2018-03-24T14:14:36.556Z,13.32
2018-03-24T14:17:04.723Z,11.82
2018-03-24T14:19:32.865Z,13.57
2018-03-24T14:22:01.036Z,11.70
2018-03-24T14:24:29.170Z,12.88
2018-03-24T14:26:57.327Z,12.37
2018-03-24T14:29:25.462Z,12.88
2018-03-24T14:31:53.637Z,14.40
2018-03-24T14:34:21.778Z,14.30
2018-03-24T14:36:49.938Z,13.27
2018-03-24T14:39:18.077Z,12.73
2018-03-24T14:41:46.204Z,13.27
2018-03-24T14:44:14.370Z,11.48
2018-03-24T14:46:42.504Z,13.75
2018-03-24T14:49:10.665Z,11.25
2018-03-24T14:51:38.805Z,13.77
2018-03-24T14:54:06.980Z,12.00
2018-03-24T14:56:35.116Z,13.25
2018-03-24T14:59:03.281Z,12.90
2018-03-24T15:01:31.418Z,12.02
2018-03-24T15:03:59.587Z,13.82
2018-03-24T15:06:27.730Z,14.63
2018-03-24T15:08:55.936Z,13.98
2018-03-24T15:11:24.074Z,13.05
2018-03-24T15:13:52.261Z,13.02
2018-03-24T15:16:20.418Z,12.93
2018-03-24T15:18:48.589Z,14.45
2018-03-24T15:21:16.721Z,15.23
2018-03-24T15:23:44.886Z,13.90
2018-03-24T15:26:13.021Z,15.05
2018-03-24T15:28:52.910Z,13.60
2018-03-24T15:31:32.677Z,11.95
2018-03-24T15:34:12.414Z,14.02
2018-03-24T15:36:43.867Z,13.52
2018-03-24T15:39:12.042Z,14.30
2018-03-24T15:41:40.180Z,12.85
2018-03-24T15:44:08.334Z,13.93
2018-03-24T15:46:36.464Z,15.15
2018-03-24T15:49:04.625Z,14.80
2018-03-24T15:51:32.761Z,13.68
2018-03-24T15:54:00.919Z,13.65
2018-03-24T15:56:29.055Z,12.45
2018-03-24T15:58:57.249Z,15.00
2018-03-24T16:01:25.388Z,12.75
2018-03-24T16:03:53.566Z,12.05
2018-03-24T16:06:21.689Z,13.32
2018-03-24T16:08:49.849Z,13.38
2018-03-24T16:11:18.019Z,12.82
2018-03-24T16:13:46.177Z,13.40
2018-03-24T16:16:14.357Z,11.85
2018-03-24T16:18:42.490Z,14.55
2018-03-24T16:21:10.652Z,13.10
2018-03-24T16:23:38.782Z,13.07
2018-03-24T16:26:06.938Z,11.40
2018-03-24T16:28:35.073Z,16.70
2018-03-24T16:31:03.255Z,17.45
2018-03-24T16:33:31.394Z,13.50
2018-03-24T16:35:59.561Z,14.38
2018-03-24T16:38:27.762Z,14.68
2018-03-24T16:40:55.926Z,20.17
2018-03-24T16:43:24.100Z,19.40
2018-03-24T16:45:52.427Z,16.20
2018-03-24T16:48:20.602Z,16.12
2018-03-24T16:50:49.561Z,14.98
2018-03-24T16:53:17.738Z,12.90
2018-03-24T16:55:45.909Z,13.05
2018-03-24T16:58:14.041Z,13.70
2018-03-24T17:00:42.217Z,12.75
2018-03-24T17:03:10.345Z,12.63
2018-03-24T17:05:38.521Z,12.45
2018-03-24T17:08:06.681Z,13.50
2018-03-24T17:10:34.813Z,14.75
2018-03-24T17:13:03.165Z,11.90
2018-03-24T17:15:32.173Z,11.75
2018-03-24T17:18:00.327Z,13.43
2018-03-24T17:20:28.461Z,11.80
2018-03-24T17:22:56.619Z,13.02
2018-03-24T17:25:24.757Z,12.85
2018-03-24T17:27:53.742Z,15.75
2018-03-24T17:30:21.839Z,12.98
2018-03-24T17:32:50.028Z,14.05
2018-03-24T17:35:18.167Z,13.23
2018-03-24T17:37:46.317Z,14.63
2018-03-24T17:40:14.724Z,12.90
2018-03-24T17:42:42.894Z,16.05
2018-03-24T17:45:11.100Z,14.20
2018-03-24T17:47:39.438Z,13.20
2018-03-24T17:50:08.745Z,14.70
2018-03-24T17:52:36.997Z,14.35
2018-03-24T17:55:05.171Z,16.20
2018-03-24T17:57:33.334Z,13.32
2018-03-24T18:00:01.474Z,13.95
2018-03-24T18:02:29.794Z,14.70
2018-03-24T18:04:58.099Z,15.35
2018-03-24T18:07:26.523Z,13.55
2018-03-24T18:09:54.706Z,14.20
2018-03-24T18:12:22.877Z,14.10
2018-03-24T18:14:51.019Z,14.70
2018-03-24T18:17:19.196Z,14.07
2018-03-24T18:19:47.450Z,15.05
2018-03-24T18:22:15.643Z,15.70
2018-03-24T18:24:43.781Z,12.45
2018-03-24T18:27:12.377Z,14.48
2018-03-24T18:29:41.302Z,15.52
2018-03-24T18:32:09.715Z,17.15
2018-03-24T18:34:37.889Z,15.85
2018-03-24T18:37:06.069Z,15.77
2018-03-24T18:39:34.237Z,16.62
2018-03-24T18:42:02.457Z,17.33
2018-03-24T18:44:30.744Z,13.98
2018-03-24T18:46:58.880Z,17.42
2018-03-24T18:49:27.122Z,16.83
2018-03-24T18:51:55.272Z,18.10
2018-03-24T18:54:23.891Z,17.35
2018-03-24T18:56:52.071Z,15.48
2018-03-24T18:59:20.520Z,19.85
2018-03-24T19:01:48.998Z,21.05
2018-03-24T19:04:17.230Z,22.67
2018-03-24T19:06:45.397Z,20.73
2018-03-24T19:09:13.948Z,21.60
2018-03-24T19:11:42.101Z,22.42
2018-03-24T19:14:10.297Z,19.77
2018-03-24T19:16:38.507Z,20.15
2018-03-24T19:19:06.723Z,18.73
2018-03-24T19:21:35.067Z,18.00
2018-03-24T19:24:03.463Z,17.73
2018-03-24T19:26:31.669Z,19.08
2018-03-24T19:28:59.838Z,16.67
2018-03-24T19:31:28.029Z,16.15
2018-03-24T19:33:56.140Z,17.20
2018-03-24T19:36:25.078Z,18.08
2018-03-24T19:38:53.210Z,20.50
2018-03-24T19:41:22.138Z,18.15
2018-03-24T19:43:50.275Z,17.12
2018-03-24T19:46:19.199Z,16.90
2018-03-24T19:48:47.329Z,20.27
2018-03-24T19:51:16.264Z,19.20
2018-03-24T19:53:44.562Z,16.42
2018-03-24T19:56:12.739Z,18.17
2018-03-24T19:58:40.881Z,21.40
2018-03-24T20:01:09.033Z,19.55
2018-03-24T20:03:37.165Z,20.65
2018-03-24T20:06:05.335Z,19.65
2018-03-24T20:08:33.477Z,19.70
2018-03-24T20:11:01.650Z,20.08
2018-03-24T20:13:29.781Z,19.00
2018-03-24T20:15:57.942Z,18.48
2018-03-24T20:18:26.089Z,19.15
2018-03-24T20:20:54.286Z,18.65
2018-03-24T20:23:22.422Z,22.10
2018-03-24T20:25:50.606Z,22.30
2018-03-24T20:28:18.742Z,21.15
2018-03-24T20:30:46.925Z,22.15
2018-03-24T20:33:15.057Z,20.92
2018-03-24T20:35:43.214Z,23.48
2018-03-24T20:38:11.341Z,20.70
2018-03-24T20:40:39.510Z,22.00
2018-03-24T20:43:07.638Z,20.55
2018-03-24T20:45:35.819Z,23.12
2018-03-24T20:48:03.953Z,22.52
2018-03-24T20:50:32.121Z,22.95
2018-03-24T20:53:00.259Z,21.48
2018-03-24T20:55:28.414Z,22.02
2018-03-24T20:57:56.613Z,23.30
2018-03-24T21:00:24.785Z,21.05
2018-03-24T21:02:53.753Z,22.75
2018-03-24T21:05:21.914Z,22.58
2018-03-24T21:07:50.122Z,21.02
2018-03-24T21:10:18.246Z,20.67
2018-03-24T21:12:46.393Z,20.35
2018-03-24T21:15:14.555Z,21.95
2018-03-24T21:17:42.685Z,22.83
2018-03-24T21:20:10.836Z,20.92
2018-03-24T21:22:39.002Z,22.77
2018-03-24T21:25:07.132Z,22.48
2018-03-24T21:27:35.294Z,23.62
2018-03-24T21:30:03.435Z,23.50
2018-03-24T21:32:31.586Z,22.92
2018-03-24T21:34:59.729Z,22.55
2018-03-24T21:37:27.889Z,23.85
2018-03-24T21:39:56.023Z,23.65
2018-03-24T21:42:24.177Z,24.10
2018-03-24T21:44:52.310Z,22.17
2018-03-24T21:47:20.469Z,22.40
2018-03-24T21:49:48.597Z,23.12
2018-03-24T21:52:16.788Z,23.45
2018-03-24T21:54:44.921Z,22.50
2018-03-24T21:57:13.108Z,23.45
2018-03-24T21:59:41.303Z,24.70
2018-03-24T22:02:09.551Z,25.30
2018-03-24T22:04:38.042Z,23.87
2018-03-24T22:07:06.246Z,25.05
2018-03-24T22:09:34.394Z,24.70
2018-03-24T22:12:02.634Z,25.95
2018-03-24T22:14:30.820Z,26.30
2018-03-24T22:16:59.010Z,25.70
2018-03-24T22:19:27.934Z,26.75
2018-03-24T22:21:56.105Z,23.85
2018-03-24T22:26:58.670Z,26.45
2018-03-24T22:29:26.817Z,25.23
2018-03-24T22:31:54.998Z,25.33
2018-03-24T22:34:23.165Z,24.92
2018-03-24T22:36:51.341Z,27.17
2018-03-24T22:39:19.504Z,26.65
2018-03-24T22:41:47.658Z,24.77
2018-03-24T22:44:15.825Z,28.90
2018-03-24T22:46:43.960Z,27.15
2018-03-24T22:49:12.131Z,25.83
2018-03-24T22:51:40.278Z,27.45
2018-03-24T22:54:08.438Z,22.75
2018-03-24T22:56:36.596Z,24.98
2018-03-24T22:59:04.753Z,25.30
2018-03-24T23:01:32.953Z,24.63
2018-03-24T23:04:01.150Z,26.85
2018-03-24T23:06:29.285Z,26.55
2018-03-24T23:08:57.458Z,24.42
2018-03-24T23:11:25.594Z,25.80
2018-03-24T23:13:53.765Z,26.30
2018-03-24T23:16:21.913Z,24.65
2018-03-24T23:18:50.118Z,24.35
2018-03-24T23:21:18.261Z,24.95
2018-03-24T23:23:46.420Z,26.40
2018-03-24T23:26:14.577Z,27.55
2018-03-24T23:28:42.732Z,25.92
2018-03-24T23:31:10.874Z,25.75
2018-03-24T23:33:39.034Z,25.83
2018-03-24T23:36:07.951Z,25.50
2018-03-24T23:38:36.113Z,25.52
2018-03-24T23:41:05.012Z,23.95
2018-03-24T23:43:33.169Z,25.05
2018-03-24T23:46:01.309Z,26.95
2018-03-24T23:48:29.470Z,25.85
2018-03-24T23:50:57.605Z,25.62
2018-03-24T23:53:25.762Z,24.15
2018-03-24T23:55:53.924Z,27.00
2018-03-24T23:58:22.065Z,25.05
